createdAt,value
2023-05-09T00:00:11.730Z,45.35
2023-05-09T00:10:15.924Z,44.81
2023-05-09T00:20:19.186Z,44.32
2023-05-09T00:30:23.597Z,45.42
2023-05-09T00:40:28.238Z,44.79
2023-05-09T00:50:32.007Z,46.08
2023-05-09T01:00:39.083Z,46.21
2023-05-09T01:10:57.121Z,44.90
2023-05-09T01:21:10.509Z,44.84
2023-05-09T01:31:15.942Z,46.15
2023-05-09T01:41:21.543Z,46.36
2023-05-09T01:51:26.675Z,45.41
2023-05-09T02:01:30.765Z,44.96
2023-05-09T02:11:35.075Z,45.84
2023-05-09T02:21:38.741Z,46.35
2023-05-09T02:31:41.574Z,46.82
2023-05-09T02:41:48.869Z,47.84
2023-05-09T02:51:51.280Z,48.36
2023-05-09T03:01:56.538Z,48.36
2023-05-09T03:12:01.503Z,48.54
2023-05-09T03:22:06.088Z,47.76
2023-05-09T03:32:15.769Z,47.15
2023-05-09T03:42:20.473Z,45.47
2023-05-09T03:52:27.332Z,44.81
2023-05-09T04:02:33.110Z,43.38
2023-05-09T04:12:40.979Z,41.87
2023-05-09T04:22:45.395Z,40.21
2023-05-09T04:32:50.181Z,41.84
2023-05-09T04:42:53.830Z,45.43
2023-05-09T04:53:00.834Z,43.74
2023-05-09T05:03:07.827Z,42.80
2023-05-09T05:13:13.183Z,41.22
2023-05-09T05:23:19.770Z,40.36
2023-05-09T05:33:21.994Z,39.84
2023-05-09T05:43:26.587Z,40.31
2023-05-09T05:53:31.533Z,39.27
2023-05-09T06:03:35.253Z,38.44
2023-05-09T06:13:40.854Z,37.79
2023-05-09T06:24:05.912Z,37.36
2023-05-09T06:34:13.910Z,37.41
2023-05-09T06:44:16.103Z,35.58
2023-05-09T06:54:21.470Z,34.61
2023-05-09T07:04:26.821Z,34.03
2023-05-09T07:14:34.501Z,32.36
2023-05-09T07:24:39.123Z,31.12
2023-05-09T07:34:41.296Z,30.19
2023-05-09T07:44:49.411Z,29.47
2023-05-09T07:54:51.589Z,28.65
2023-05-09T08:04:53.909Z,28.66
2023-05-09T08:14:58.355Z,27.82
2023-05-09T08:25:05.424Z,28.14
2023-05-09T08:35:09.865Z,28.69
2023-05-09T08:45:19.533Z,28.53
2023-05-09T08:55:26.387Z,29.01
2023-05-09T09:15:40.825Z,28.41
2023-05-09T09:25:51.026Z,27.76
2023-05-09T09:35:57.180Z,27.73
2023-05-09T09:46:08.223Z,28.36
2023-05-09T09:56:10.947Z,28.01
2023-05-09T10:06:17.846Z,28.63
2023-05-09T10:16:35.526Z,28.28
2023-05-09T10:26:46.956Z,28.78
2023-05-09T10:36:57.774Z,29.40
2023-05-09T10:47:06.018Z,29.12
2023-05-09T10:57:11.316Z,28.61
2023-05-09T11:07:27.125Z,28.57
2023-05-09T11:17:32.744Z,28.87
2023-05-09T11:27:40.336Z,29.70
2023-05-09T11:37:50.366Z,29.13
2023-05-09T11:47:55.108Z,29.38
2023-05-09T11:57:57.454Z,29.97
2023-05-09T12:08:08.703Z,29.87
2023-05-09T12:18:10.983Z,29.76
2023-05-09T12:28:14.753Z,29.83
2023-05-09T12:38:24.012Z,30.28
2023-05-09T12:48:26.500Z,30.05
2023-05-09T12:58:34.982Z,30.09
2023-05-09T13:08:39.496Z,29.63
2023-05-09T13:18:41.954Z,29.96
2023-05-09T13:28:46.663Z,29.21
2023-05-09T13:38:55.033Z,29.47
2023-05-09T13:49:01.903Z,29.68
2023-05-09T13:59:05.222Z,29.62
2023-05-09T14:09:07.520Z,29.82
2023-05-09T14:19:13.569Z,30.15
2023-05-09T14:29:17.846Z,30.07
2023-05-09T14:39:22.790Z,30.35
2023-05-09T14:49:25.053Z,30.16
2023-05-09T14:59:32.810Z,30.26
2023-05-09T15:09:41.983Z,30.66
2023-05-09T15:19:49.470Z,29.97
2023-05-09T15:29:54.874Z,30.34
2023-05-09T15:39:57.962Z,30.66
2023-05-09T15:50:02.788Z,30.75
2023-05-09T16:00:07.841Z,30.30
2023-05-09T16:10:15.196Z,30.49
2023-05-09T16:20:20.155Z,30.37
2023-05-09T16:30:24.516Z,29.93
2023-05-09T16:40:26.792Z,30.42
2023-05-09T16:50:32.062Z,30.54
2023-05-09T17:00:34.207Z,30.79
2023-05-09T17:10:41.976Z,30.70
2023-05-09T17:20:49.512Z,31.60
2023-05-09T17:30:51.965Z,31.97
2023-05-09T17:40:56.761Z,32.25
2023-05-09T17:50:59.143Z,32.61
2023-05-09T18:01:01.374Z,33.23
2023-05-09T18:11:03.771Z,33.60
2023-05-09T18:21:15.946Z,33.52
2023-05-09T18:31:18.419Z,34.00
2023-05-09T18:41:20.859Z,34.42
2023-05-09T18:51:25.537Z,34.72
2023-05-09T19:01:30.560Z,35.56
2023-05-09T19:11:38.309Z,36.08
2023-05-09T19:21:43.699Z,36.96
2023-05-09T19:31:48.458Z,37.11
2023-05-09T19:41:50.581Z,37.24
2023-05-09T19:51:57.524Z,37.90
2023-05-09T20:02:04.657Z,38.73
2023-05-09T20:12:12.626Z,38.92
2023-05-09T20:22:17.391Z,39.68
2023-05-09T20:32:26.614Z,40.25
2023-05-09T20:42:33.517Z,40.55
2023-05-09T20:52:36.066Z,41.19
2023-05-09T21:02:38.283Z,41.28
2023-05-09T21:12:40.739Z,41.87
2023-05-09T21:22:43.180Z,42.02
2023-05-09T21:32:45.427Z,42.24
2023-05-09T21:42:50.068Z,42.63
2023-05-09T21:52:56.520Z,43.29
2023-05-09T22:02:59.159Z,43.92
2023-05-09T22:13:05.936Z,44.20
2023-05-09T22:23:10.441Z,44.54
2023-05-09T22:33:14.752Z,43.93
2023-05-09T22:43:17.073Z,44.45
2023-05-09T22:53:24.794Z,45.04
2023-05-09T23:03:27.244Z,45.51
2023-05-09T23:13:29.708Z,45.47
2023-05-09T23:23:34.797Z,46.00
2023-05-09T23:33:39.269Z,47.00
2023-05-09T23:43:47.571Z,47.43
2023-05-09T23:53:49.843Z,47.72
